createdAt,value
2022-12-25T00:01:52.884Z,6.87
2022-12-25T00:04:21.013Z,6.50
2022-12-25T00:06:49.120Z,8.03
2022-12-25T00:09:17.310Z,5.63
2022-12-25T00:11:45.485Z,6.00
2022-12-25T00:14:13.676Z,9.03
2022-12-25T00:16:41.913Z,7.50
2022-12-25T00:19:11.453Z,6.00
2022-12-25T00:21:39.825Z,6.63
2022-12-25T00:24:08.417Z,6.87
2022-12-25T00:26:36.451Z,8.57
2022-12-25T00:29:04.483Z,4.83
2022-12-25T00:31:34.594Z,4.93
2022-12-25T00:34:02.796Z,6.73
2022-12-25T00:36:36.336Z,7.57
2022-12-25T00:39:09.352Z,6.30
2022-12-25T00:41:54.848Z,4.57
2022-12-25T00:44:22.966Z,6.97
2022-12-25T00:46:51.108Z,6.93
2022-12-25T00:49:19.411Z,7.07
2022-12-25T00:51:49.708Z,5.53
2022-12-25T00:54:17.806Z,5.17
2022-12-25T00:56:45.920Z,7.17
2022-12-25T00:59:14.163Z,7.27
2022-12-25T01:01:42.717Z,12.30
2022-12-25T01:04:11.523Z,8.67
2022-12-25T01:06:39.756Z,8.67
2022-12-25T01:09:28.185Z,9.87
2022-12-25T01:11:56.335Z,8.43
2022-12-25T01:14:24.755Z,5.37
2022-12-25T01:16:53.041Z,10.70
2022-12-25T01:19:21.214Z,8.40
2022-12-25T01:21:49.714Z,7.97
2022-12-25T01:24:19.349Z,9.23
2022-12-25T01:26:47.399Z,8.43
2022-12-25T01:29:15.556Z,7.23
2022-12-25T01:31:44.429Z,8.63
2022-12-25T01:34:12.843Z,10.47
2022-12-25T01:36:40.984Z,13.47
2022-12-25T01:39:09.070Z,12.03
2022-12-25T01:41:38.727Z,8.93
2022-12-25T01:44:08.543Z,13.47
2022-12-25T01:46:37.283Z,10.80
2022-12-25T01:49:07.925Z,10.33
2022-12-25T01:51:40.204Z,11.20
2022-12-25T01:54:11.278Z,9.67
2022-12-25T01:56:41.951Z,13.40
2022-12-25T01:59:10.728Z,10.87
2022-12-25T02:01:38.831Z,13.87
2022-12-25T02:04:10.587Z,12.50
2022-12-25T02:06:38.639Z,17.10
2022-12-25T02:09:06.808Z,10.80
2022-12-25T02:11:52.312Z,14.53
2022-12-25T02:14:22.134Z,8.03
2022-12-25T02:16:58.279Z,10.93
2022-12-25T02:19:38.405Z,16.40
2022-12-25T02:22:12.564Z,13.00
2022-12-25T02:24:51.801Z,10.17
2022-12-25T02:27:28.071Z,12.53
2022-12-25T02:30:01.476Z,13.47
2022-12-25T02:32:32.634Z,12.43
2022-12-25T02:35:03.660Z,11.57
2022-12-25T02:37:37.540Z,11.23
2022-12-25T02:40:10.642Z,12.97
2022-12-25T02:43:09.770Z,12.23
2022-12-25T02:45:59.830Z,12.40
2022-12-25T02:48:47.842Z,12.90
2022-12-25T02:51:49.971Z,10.43
2022-12-25T02:54:37.949Z,11.43
2022-12-25T02:57:27.791Z,13.73
2022-12-25T03:00:15.308Z,15.53
2022-12-25T03:03:05.849Z,10.07
2022-12-25T03:05:53.842Z,12.87
2022-12-25T03:08:24.125Z,11.40
2022-12-25T03:11:14.613Z,8.73
2022-12-25T03:13:44.403Z,10.73
2022-12-25T03:16:30.407Z,8.80
2022-12-25T03:19:00.435Z,13.07
2022-12-25T03:21:45.946Z,11.20
2022-12-25T03:24:31.568Z,8.27
2022-12-25T03:26:59.698Z,9.50
2022-12-25T03:29:48.148Z,9.07
2022-12-25T03:32:23.341Z,11.57
2022-12-25T03:35:16.938Z,10.47
2022-12-25T03:38:21.411Z,5.63
2022-12-25T03:41:15.932Z,8.87
2022-12-25T03:44:06.928Z,8.33
2022-12-25T03:47:06.331Z,8.77
2022-12-25T03:49:57.923Z,13.13
2022-12-25T03:52:46.350Z,6.97
2022-12-25T03:55:32.163Z,7.57
2022-12-25T03:58:17.678Z,10.43
2022-12-25T04:01:03.458Z,12.30
2022-12-25T04:03:49.054Z,11.93
2022-12-25T04:06:34.893Z,10.93
2022-12-25T04:09:22.101Z,11.33
2022-12-25T04:12:07.671Z,12.47
2022-12-25T04:14:53.439Z,13.87
2022-12-25T04:17:39.020Z,11.67
2022-12-25T04:20:25.987Z,9.27
2022-12-25T04:23:11.425Z,12.73
2022-12-25T04:25:58.205Z,10.10
2022-12-25T04:28:43.680Z,6.70
2022-12-25T04:31:29.186Z,12.53
2022-12-25T04:34:14.894Z,7.37
2022-12-25T04:36:42.963Z,8.87
2022-12-25T04:39:11.053Z,10.23
2022-12-25T04:41:40.644Z,9.87
2022-12-25T04:44:10.063Z,8.13
2022-12-25T04:46:38.353Z,9.77
2022-12-25T04:49:06.468Z,9.07
2022-12-25T04:51:34.577Z,7.80
2022-12-25T04:54:02.605Z,8.30
2022-12-25T04:56:30.664Z,6.70
2022-12-25T04:59:00.177Z,9.07
2022-12-25T05:01:28.410Z,9.70
2022-12-25T05:03:56.717Z,7.83
2022-12-25T05:06:24.901Z,9.80
2022-12-25T05:08:52.970Z,10.53
2022-12-25T05:11:21.363Z,12.43
2022-12-25T05:13:49.594Z,12.27
2022-12-25T05:16:20.511Z,7.40
2022-12-25T05:18:49.990Z,9.00
2022-12-25T05:21:18.357Z,11.87
2022-12-25T05:23:49.501Z,9.53
2022-12-25T05:26:19.083Z,11.53
2022-12-25T05:28:47.891Z,7.30
2022-12-25T05:31:16.112Z,14.23
2022-12-25T05:33:45.883Z,10.07
2022-12-25T05:36:14.213Z,9.33
2022-12-25T05:38:42.327Z,5.10
2022-12-25T05:41:10.434Z,8.70
2022-12-25T05:43:38.536Z,8.60
2022-12-25T05:46:07.951Z,8.60
2022-12-25T05:48:37.772Z,7.83
2022-12-25T05:51:09.956Z,13.37
2022-12-25T05:53:38.850Z,8.33
2022-12-25T05:56:08.238Z,9.97
2022-12-25T05:58:38.141Z,8.47
2022-12-25T06:01:11.957Z,9.83
2022-12-25T06:03:40.576Z,13.80
2022-12-25T06:06:10.402Z,7.83
2022-12-25T06:08:38.533Z,9.17
2022-12-25T06:11:08.375Z,11.37
2022-12-25T06:13:37.223Z,9.57
2022-12-25T06:16:06.026Z,6.27
2022-12-25T06:18:36.306Z,8.67
2022-12-25T06:21:08.426Z,8.73
2022-12-25T06:23:38.611Z,11.40
2022-12-25T06:26:07.963Z,7.73
2022-12-25T06:28:36.604Z,8.03
2022-12-25T06:31:07.575Z,10.83
2022-12-25T06:33:36.043Z,10.93
2022-12-25T06:36:08.715Z,9.30
2022-12-25T06:38:38.379Z,9.60
2022-12-25T06:41:08.223Z,7.90
2022-12-25T06:43:36.300Z,9.87
2022-12-25T06:46:05.459Z,8.17
2022-12-25T06:48:34.289Z,7.47
2022-12-25T06:51:03.153Z,12.70
2022-12-25T06:53:38.895Z,10.87
2022-12-25T06:56:15.382Z,8.57
2022-12-25T06:58:44.546Z,8.00
2022-12-25T07:01:18.635Z,6.97
2022-12-25T07:03:47.579Z,5.27
2022-12-25T07:06:16.179Z,10.93
2022-12-25T07:08:44.356Z,9.33
2022-12-25T07:11:13.990Z,10.50
2022-12-25T07:13:42.241Z,9.87
2022-12-25T07:16:12.460Z,8.70
2022-12-25T07:18:41.810Z,9.27
2022-12-25T07:21:11.934Z,8.07
2022-12-25T07:23:40.292Z,6.93
2022-12-25T07:26:09.205Z,9.47
2022-12-25T07:28:38.765Z,6.57
2022-12-25T07:31:09.074Z,6.00
2022-12-25T07:33:37.200Z,7.43
2022-12-25T07:36:06.521Z,4.07
2022-12-25T07:38:34.670Z,4.00
2022-12-25T07:41:02.815Z,4.83
2022-12-25T07:43:30.913Z,7.87
2022-12-25T07:46:01.779Z,5.87
2022-12-25T07:48:30.299Z,6.90
2022-12-25T07:50:59.616Z,6.47
2022-12-25T07:53:27.963Z,5.73
2022-12-25T07:56:00.088Z,6.47
2022-12-25T07:58:28.409Z,5.53
2022-12-25T08:00:56.962Z,5.27
2022-12-25T08:03:26.703Z,7.30
2022-12-25T08:05:54.840Z,6.77
2022-12-25T08:08:23.096Z,6.07
2022-12-25T08:10:51.387Z,9.57
2022-12-25T08:13:19.464Z,7.00
2022-12-25T08:15:47.674Z,7.93
2022-12-25T08:18:16.200Z,5.90
2022-12-25T08:20:45.783Z,5.03
2022-12-25T08:23:13.905Z,4.30
2022-12-25T08:25:42.036Z,5.70
2022-12-25T08:28:10.140Z,8.00
2022-12-25T08:30:39.470Z,4.40
2022-12-25T08:33:07.996Z,6.47
2022-12-25T08:35:36.972Z,6.40
2022-12-25T08:38:06.372Z,9.90
2022-12-25T08:40:37.072Z,9.77
2022-12-25T08:43:05.564Z,5.73
2022-12-25T08:45:35.317Z,7.77
2022-12-25T08:48:03.541Z,5.17
2022-12-25T08:50:31.609Z,8.27
2022-12-25T08:52:59.766Z,6.00
2022-12-25T08:55:31.563Z,6.30
2022-12-25T08:57:59.657Z,5.20
2022-12-25T09:00:27.814Z,9.60
2022-12-25T09:02:56.373Z,7.47
2022-12-25T09:05:24.655Z,5.47
2022-12-25T09:07:52.843Z,5.53
2022-12-25T09:10:21.357Z,10.43
2022-12-25T09:12:50.975Z,4.53
2022-12-25T09:15:19.234Z,5.97
2022-12-25T09:17:47.392Z,5.23
2022-12-25T09:20:15.622Z,5.77
2022-12-25T09:22:43.744Z,3.97
2022-12-25T09:25:12.560Z,6.90
2022-12-25T09:27:40.893Z,4.37
2022-12-25T09:30:11.442Z,7.27
2022-12-25T09:32:40.587Z,8.63
2022-12-25T09:35:09.733Z,8.47
2022-12-25T09:37:37.952Z,5.73
2022-12-25T09:40:07.553Z,9.77
2022-12-25T09:42:35.786Z,14.73
2022-12-25T09:45:05.935Z,6.33
2022-12-25T09:47:37.404Z,8.33
2022-12-25T09:50:10.902Z,9.23
2022-12-25T09:52:43.848Z,7.07
2022-12-25T09:55:19.894Z,8.87
2022-12-25T09:57:52.184Z,5.57
2022-12-25T10:00:22.482Z,7.77
2022-12-25T10:03:18.041Z,5.83
2022-12-25T10:05:54.475Z,6.23
2022-12-25T10:08:31.765Z,6.53
2022-12-25T10:11:05.800Z,6.40
2022-12-25T10:13:50.000Z,5.37
2022-12-25T10:16:24.058Z,7.43
2022-12-25T10:19:05.910Z,7.60
2022-12-25T10:21:34.718Z,5.50
2022-12-25T10:24:08.159Z,8.43
2022-12-25T10:26:36.660Z,6.73
2022-12-25T10:29:07.924Z,3.23
2022-12-25T10:31:37.079Z,9.00
2022-12-25T10:34:07.574Z,9.50
2022-12-25T10:36:35.794Z,8.50
2022-12-25T10:39:04.197Z,15.97
2022-12-25T10:41:54.625Z,9.70
2022-12-25T10:44:24.596Z,7.87
2022-12-25T10:46:54.569Z,12.33
2022-12-25T10:49:26.117Z,10.73
2022-12-25T10:51:54.278Z,7.60
2022-12-25T10:54:24.498Z,10.17
2022-12-25T10:57:01.043Z,9.07
2022-12-25T10:59:30.850Z,8.30
2022-12-25T11:02:06.604Z,7.53
2022-12-25T11:04:37.045Z,9.33
2022-12-25T11:07:08.196Z,6.20
2022-12-25T11:09:36.421Z,6.03
2022-12-25T11:12:05.011Z,8.60
2022-12-25T11:14:33.197Z,6.57
2022-12-25T11:17:08.810Z,10.00
2022-12-25T11:19:38.364Z,9.07
2022-12-25T11:22:18.268Z,7.37
2022-12-25T11:24:46.467Z,9.57
2022-12-25T11:27:25.606Z,11.00
2022-12-25T11:29:56.296Z,12.07
2022-12-25T11:32:30.262Z,10.17
2022-12-25T11:35:00.201Z,8.90
2022-12-25T11:37:34.114Z,10.97
2022-12-25T11:40:02.935Z,6.33
2022-12-25T11:42:34.080Z,6.20
2022-12-25T11:45:04.982Z,9.10
2022-12-25T11:47:37.892Z,8.17
2022-12-25T11:50:20.331Z,5.67
2022-12-25T11:52:48.723Z,8.73
2022-12-25T11:55:20.858Z,7.13
2022-12-25T11:57:54.996Z,6.73
2022-12-25T12:00:23.443Z,5.80
2022-12-25T12:02:56.156Z,6.73
2022-12-25T12:05:28.080Z,3.83
2022-12-25T12:07:59.227Z,7.17
2022-12-25T12:10:44.120Z,8.30
2022-12-25T12:13:27.118Z,6.07
2022-12-25T12:15:55.491Z,6.07
2022-12-25T12:18:24.983Z,5.30
2022-12-25T12:21:02.898Z,4.93
2022-12-25T12:23:32.824Z,7.07
2022-12-25T12:26:01.170Z,6.57
2022-12-25T12:28:31.261Z,6.20
2022-12-25T12:31:01.107Z,7.00
2022-12-25T12:33:33.148Z,7.77
2022-12-25T12:36:04.618Z,6.60
2022-12-25T12:38:34.330Z,5.27
2022-12-25T12:41:03.654Z,5.13
2022-12-25T12:43:34.920Z,4.30
2022-12-25T12:46:07.164Z,5.07
2022-12-25T12:48:41.715Z,6.80
2022-12-25T12:51:13.047Z,4.90
2022-12-25T12:53:42.046Z,5.37
2022-12-25T12:56:12.322Z,4.50
2022-12-25T12:58:45.259Z,5.00
2022-12-25T13:01:21.063Z,5.93
2022-12-25T13:04:10.552Z,4.57
2022-12-25T13:06:43.282Z,5.30
2022-12-25T13:09:21.284Z,6.40
2022-12-25T13:11:50.521Z,6.50
2022-12-25T13:14:21.403Z,6.30
2022-12-25T13:16:53.304Z,5.50
2022-12-25T13:19:23.332Z,6.47
2022-12-25T13:21:58.302Z,6.17
2022-12-25T13:24:28.356Z,6.17
2022-12-25T13:26:56.793Z,7.87
2022-12-25T13:29:30.413Z,5.07
2022-12-25T13:31:59.583Z,6.50
2022-12-25T13:34:31.951Z,6.27
2022-12-25T13:37:08.171Z,4.93
2022-12-25T13:39:37.272Z,8.67
2022-12-25T13:42:06.894Z,6.07
2022-12-25T13:44:43.586Z,5.63
2022-12-25T13:47:20.880Z,4.87
2022-12-25T13:49:49.857Z,9.03
2022-12-25T13:52:23.018Z,8.10
2022-12-25T13:55:00.068Z,7.23
2022-12-25T13:57:37.244Z,6.03
2022-12-25T14:00:08.732Z,7.30
2022-12-25T14:02:38.791Z,9.03
2022-12-25T14:05:24.522Z,6.47
2022-12-25T14:07:54.394Z,5.03
2022-12-25T14:10:23.159Z,5.80
2022-12-25T14:12:51.988Z,4.77
2022-12-25T14:15:21.995Z,4.47
2022-12-25T14:17:51.606Z,6.63
2022-12-25T14:20:24.946Z,4.80
2022-12-25T14:22:56.232Z,7.73
2022-12-25T14:25:29.511Z,6.27
2022-12-25T14:27:57.800Z,5.63
2022-12-25T14:30:26.920Z,5.73
2022-12-25T14:32:56.051Z,6.37
2022-12-25T14:35:24.834Z,4.67
2022-12-25T14:37:57.560Z,5.33
2022-12-25T14:40:26.948Z,4.10
2022-12-25T14:42:59.361Z,5.77
2022-12-25T14:45:30.599Z,5.37
2022-12-25T14:48:00.930Z,5.73
2022-12-25T14:50:31.650Z,6.87
2022-12-25T14:53:01.587Z,5.33
2022-12-25T14:55:30.698Z,4.63
2022-12-25T14:58:00.557Z,4.27
2022-12-25T15:00:31.716Z,3.57
2022-12-25T15:03:01.239Z,4.07
2022-12-25T15:05:34.600Z,4.43
2022-12-25T15:08:25.804Z,4.77
2022-12-25T15:11:00.499Z,4.27
2022-12-25T15:13:30.291Z,4.70
2022-12-25T15:16:00.199Z,5.97
2022-12-25T15:18:32.989Z,5.33
2022-12-25T15:21:01.333Z,5.17
2022-12-25T15:23:30.909Z,4.40
2022-12-25T15:25:59.044Z,5.93
2022-12-25T15:28:27.265Z,4.70
2022-12-25T15:30:55.526Z,7.50
2022-12-25T15:33:23.606Z,3.60
2022-12-25T15:35:51.749Z,4.60
2022-12-25T15:38:19.797Z,5.60
2022-12-25T15:40:49.310Z,7.63
2022-12-25T15:43:40.009Z,5.27
2022-12-25T15:46:06.954Z,3.43
2022-12-25T15:48:35.048Z,4.47
2022-12-25T15:51:03.179Z,7.33
2022-12-25T15:53:31.498Z,3.77
2022-12-25T15:56:00.973Z,5.57
2022-12-25T15:58:29.053Z,4.07
2022-12-25T16:00:57.224Z,4.40
2022-12-25T16:03:25.418Z,4.10
2022-12-25T16:05:54.677Z,4.43
2022-12-25T16:08:23.093Z,5.20
2022-12-25T16:10:51.157Z,4.77
2022-12-25T16:13:20.592Z,5.27
2022-12-25T16:15:48.725Z,3.97
2022-12-25T16:18:16.945Z,4.87
2022-12-25T16:20:45.007Z,4.90
2022-12-25T16:23:13.219Z,6.03
2022-12-25T16:25:41.979Z,3.80
2022-12-25T16:28:10.381Z,6.37
2022-12-25T16:30:40.918Z,4.60
2022-12-25T16:33:10.482Z,5.00
2022-12-25T16:35:38.822Z,3.67
2022-12-25T16:38:06.984Z,3.60
2022-12-25T16:40:35.447Z,3.87
2022-12-25T16:43:03.527Z,6.97
2022-12-25T16:45:31.673Z,4.70
2022-12-25T16:48:01.147Z,5.97
2022-12-25T16:50:29.329Z,8.37
2022-12-25T16:52:57.443Z,5.00
2022-12-25T16:55:29.931Z,5.03
2022-12-25T16:57:58.662Z,3.90
2022-12-25T17:00:26.795Z,6.97
2022-12-25T17:02:57.126Z,5.57
2022-12-25T17:05:26.732Z,7.83
2022-12-25T17:07:54.867Z,6.33
2022-12-25T17:10:23.144Z,4.60
2022-12-25T17:12:51.271Z,4.50
2022-12-25T17:15:19.568Z,5.33
2022-12-25T17:17:47.604Z,3.80
2022-12-25T17:20:15.717Z,4.47
2022-12-25T17:22:45.232Z,4.00
2022-12-25T17:25:13.328Z,5.23
2022-12-25T17:27:41.475Z,5.07
2022-12-25T17:30:10.835Z,4.67
2022-12-25T17:32:38.863Z,4.50
2022-12-25T17:35:07.632Z,5.57
2022-12-25T17:37:35.858Z,6.57
2022-12-25T17:40:06.020Z,4.60
2022-12-25T17:42:34.475Z,5.97
2022-12-25T17:45:02.664Z,4.27
2022-12-25T17:47:31.237Z,5.20
2022-12-25T17:49:59.433Z,4.03
2022-12-25T17:52:27.616Z,4.60
2022-12-25T17:54:55.755Z,5.80
2022-12-25T17:57:25.234Z,4.17
2022-12-25T17:59:53.575Z,3.87
2022-12-25T18:02:21.948Z,5.67
2022-12-25T18:04:50.426Z,3.90
2022-12-25T18:07:18.635Z,4.40
2022-12-25T18:09:46.733Z,4.10
2022-12-25T18:12:14.831Z,3.70
2022-12-25T18:14:44.602Z,4.83
2022-12-25T18:17:12.815Z,3.90
2022-12-25T18:19:41.209Z,3.50
2022-12-25T18:22:09.545Z,4.13
2022-12-25T18:24:37.588Z,4.30
2022-12-25T18:27:05.671Z,4.73
2022-12-25T18:29:33.716Z,4.20
2022-12-25T18:32:03.305Z,5.10
2022-12-25T18:34:31.486Z,5.53
2022-12-25T18:37:03.103Z,4.37
2022-12-25T18:39:31.727Z,5.30
2022-12-25T18:42:17.533Z,3.87
2022-12-25T18:44:45.842Z,4.50
2022-12-25T18:47:15.413Z,6.80
2022-12-25T18:49:43.543Z,3.67
2022-12-25T18:52:48.731Z,4.07
2022-12-25T18:54:59.877Z,4.13
2022-12-25T18:57:28.033Z,4.63
2022-12-25T18:59:56.317Z,4.07
2022-12-25T19:02:25.956Z,3.90
2022-12-25T19:04:54.196Z,3.63
2022-12-25T19:07:23.447Z,4.17
2022-12-25T19:09:51.805Z,4.40
2022-12-25T19:12:20.144Z,5.50
2022-12-25T19:14:48.588Z,3.90
2022-12-25T19:17:16.960Z,4.10
2022-12-25T19:19:46.741Z,4.30
2022-12-25T19:22:14.995Z,4.03
2022-12-25T19:24:43.274Z,4.77
2022-12-25T19:27:11.403Z,5.50
2022-12-25T19:29:39.433Z,4.30
2022-12-25T19:32:07.615Z,3.57
2022-12-25T19:34:36.023Z,4.57
2022-12-25T19:37:05.969Z,4.10
2022-12-25T19:39:34.179Z,5.47
2022-12-25T19:42:02.245Z,4.63
2022-12-25T19:44:30.342Z,4.67
2022-12-25T19:46:58.609Z,5.10
2022-12-25T19:49:27.129Z,4.30
2022-12-25T19:51:55.584Z,4.00
2022-12-25T19:54:25.108Z,3.97
2022-12-25T19:56:53.828Z,6.23
2022-12-25T19:59:21.871Z,4.43
2022-12-25T20:01:50.100Z,5.43
2022-12-25T20:04:18.666Z,4.53
2022-12-25T20:06:47.117Z,4.77
2022-12-25T20:09:20.781Z,4.57
2022-12-25T20:11:50.762Z,4.90
2022-12-25T20:14:19.696Z,5.63
2022-12-25T20:16:48.038Z,5.87
2022-12-25T20:19:16.222Z,5.50
2022-12-25T20:21:44.435Z,3.90
2022-12-25T20:24:12.685Z,3.77
2022-12-25T20:26:40.845Z,5.23
2022-12-25T20:29:10.378Z,4.10
2022-12-25T20:31:39.168Z,7.33
2022-12-25T20:34:10.271Z,4.83
2022-12-25T20:36:38.905Z,4.13
2022-12-25T20:39:09.861Z,4.43
2022-12-25T20:41:38.440Z,4.20
2022-12-25T20:44:08.569Z,4.03
2022-12-25T20:46:38.839Z,3.73
2022-12-25T20:49:07.397Z,3.93
2022-12-25T20:51:35.625Z,3.93
2022-12-25T20:54:07.733Z,4.37
2022-12-25T20:56:36.699Z,4.70
2022-12-25T20:59:05.883Z,5.53
2022-12-25T21:01:34.267Z,5.90
2022-12-25T21:04:03.915Z,5.17
2022-12-25T21:06:32.195Z,3.67
2022-12-25T21:09:00.868Z,4.40
2022-12-25T21:11:30.571Z,4.50
2022-12-25T21:13:59.221Z,4.43
2022-12-25T21:16:28.513Z,4.67
2022-12-25T21:18:56.609Z,5.33
2022-12-25T21:21:26.913Z,5.37
2022-12-25T21:23:56.552Z,4.60
2022-12-25T21:26:26.723Z,4.33
2022-12-25T21:28:57.339Z,4.23
2022-12-25T21:31:26.396Z,4.23
2022-12-25T21:33:55.039Z,5.87
2022-12-25T21:36:28.030Z,4.30
2022-12-25T21:38:58.487Z,4.93
2022-12-25T21:41:27.564Z,4.13
2022-12-25T21:43:56.576Z,3.60
2022-12-25T21:46:25.304Z,5.13
2022-12-25T21:48:53.660Z,4.27
2022-12-25T21:51:41.494Z,4.47
2022-12-25T21:54:12.198Z,6.30
2022-12-25T21:56:44.881Z,4.30
2022-12-25T21:59:16.074Z,3.70
2022-12-25T22:01:45.274Z,4.10
2022-12-25T22:04:14.628Z,3.80
2022-12-25T22:07:00.952Z,4.40
2022-12-25T22:09:30.861Z,3.97
2022-12-25T22:12:16.964Z,5.23
2022-12-25T22:14:56.388Z,5.00
2022-12-25T22:17:44.334Z,4.23
2022-12-25T22:20:15.063Z,4.60
2022-12-25T22:22:43.439Z,3.90
2022-12-25T22:25:13.584Z,3.60
2022-12-25T22:27:43.377Z,4.67
2022-12-25T22:30:14.095Z,5.30
2022-12-25T22:32:42.736Z,5.87
2022-12-25T22:35:12.351Z,3.93
2022-12-25T22:37:41.275Z,3.03
2022-12-25T22:40:13.901Z,4.20
2022-12-25T22:42:42.624Z,3.83
2022-12-25T22:45:12.027Z,3.60
2022-12-25T22:47:40.470Z,3.13
2022-12-25T22:50:13.206Z,3.30
2022-12-25T22:52:42.041Z,2.47
2022-12-25T22:55:12.487Z,2.00
2022-12-25T22:57:40.779Z,2.17
2022-12-25T23:00:10.199Z,3.57
2022-12-25T23:02:38.621Z,2.50
2022-12-25T23:05:07.710Z,2.23
2022-12-25T23:07:35.983Z,4.13
2022-12-25T23:10:04.424Z,3.20
2022-12-25T23:12:51.681Z,2.63
2022-12-25T23:15:20.027Z,1.77
2022-12-25T23:18:05.429Z,2.10
2022-12-25T23:20:51.391Z,3.07
2022-12-25T23:23:39.465Z,3.03
2022-12-25T23:26:10.856Z,1.83
2022-12-25T23:29:00.109Z,1.70
2022-12-25T23:31:30.528Z,1.63
2022-12-25T23:33:58.897Z,3.73
2022-12-25T23:36:27.110Z,1.80
2022-12-25T23:38:55.631Z,1.40
2022-12-25T23:41:23.835Z,1.47
2022-12-25T23:43:53.307Z,2.53
2022-12-25T23:46:21.806Z,1.40
2022-12-25T23:48:49.977Z,2.70
2022-12-25T23:51:18.716Z,1.80
2022-12-25T23:53:46.822Z,1.80
2022-12-25T23:56:14.895Z,2.20
2022-12-25T23:58:45.294Z,2.80
